Time;durP1;ratioP1;P1;durP2;ratioP2;P2;SDS_P1;SDS_P2;PMS_P1;PMS_P2;Temp;Humidity;BMP_temperature;BMP_pressure;BME280_temperature;BME280_humidity;BME280_pressure;Samples;Min_cycle;Max_cycle;Signal;HPM_P1;HPM_P2
2021/09/27 00:01:06;;;;;;;2.25;2.08;;;22.90;70.30;;;;;;5123460;28;20031;-39
2021/09/27 00:03:32;;;;;;;1.80;1.70;;;22.90;70.30;;;;;;5105560;28;20509;-37
2021/09/27 00:05:58;;;;;;;2.10;1.90;;;22.90;70.40;;;;;;5123300;28;20043;-37
2021/09/27 00:08:24;;;;;;;2.28;2.08;;;22.90;70.50;;;;;;5123325;28;20053;-37
2021/09/27 00:11:08;;;;;;;2.23;1.70;;;22.90;70.50;;;;;;5123606;28;20487;-37
2021/09/27 00:13:37;;;;;;;2.30;1.90;;;22.90;70.70;;;;;;5104836;28;20032;-37
2021/09/27 00:16:03;;;;;;;1.75;1.63;;;22.90;70.60;;;;;;5127209;27;20015;-37
2021/09/27 00:18:30;;;;;;;2.05;1.92;;;22.90;70.80;;;;;;5107803;27;20031;-38
2021/09/27 00:20:58;;;;;;;2.30;2.10;;;22.90;71.00;;;;;;5122974;28;20039;-37
2021/09/27 00:23:24;;;;;;;2.20;2.10;;;22.90;71.10;;;;;;5123205;28;20027;-37
2021/09/27 00:25:51;;;;;;;2.10;2.00;;;22.90;71.10;;;;;;5123227;28;20114;-37
2021/09/27 00:28:17;;;;;;;2.10;2.00;;;22.80;71.10;;;;;;5123219;28;20100;-37
2021/09/27 00:30:43;;;;;;;2.22;2.00;;;22.90;71.10;;;;;;5104859;28;20023;-37
2021/09/27 00:33:10;;;;;;;2.33;2.10;;;22.80;71.20;;;;;;5123179;28;20035;-37
2021/09/27 00:35:37;;;;;;;2.40;2.17;;;22.80;71.20;;;;;;5104611;28;20026;-37
2021/09/27 00:38:04;;;;;;;2.00;1.90;;;22.80;71.20;;;;;;5122604;28;20019;-37
2021/09/27 00:40:32;;;;;;;2.08;1.88;;;22.80;71.20;;;;;;5104985;28;20060;-38
2021/09/27 00:42:59;;;;;;;2.28;2.08;;;22.80;71.20;;;;;;5123134;28;20059;-37
2021/09/27 00:45:28;;;;;;;2.20;2.00;;;22.80;71.40;;;;;;5120499;28;20035;-38
2021/09/27 00:47:54;;;;;;;2.08;1.77;;;22.80;71.20;;;;;;5122669;28;20042;-38
2021/09/27 00:50:22;;;;;;;1.90;1.80;;;22.80;71.10;;;;;;5104231;28;20027;-37
2021/09/27 00:52:49;;;;;;;2.40;2.08;;;22.80;71.00;;;;;;5122633;28;20073;-37
2021/09/27 00:55:18;;;;;;;2.20;2.00;;;22.80;71.00;;;;;;5104744;28;20031;-37
2021/09/27 00:57:45;;;;;;;2.00;1.90;;;22.80;71.40;;;;;;5104608;28;20051;-37
2021/09/27 01:00:14;;;;;;;2.78;2.17;;;22.80;70.70;;;;;;5087790;28;20039;-37
2021/09/27 01:02:40;;;;;;;2.20;2.00;;;22.80;70.50;;;;;;5123092;28;20093;-37
2021/09/27 01:05:08;;;;;;;3.10;2.58;;;22.80;70.50;;;;;;5104363;28;20012;-37
2021/09/27 01:07:59;;;;;;;4.50;3.10;;;22.80;70.50;;;;;;5122885;28;20036;-37
2021/09/27 01:10:58;;;;;;;2.40;2.22;;;22.70;71.00;;;;;;5097917;28;20016;-37
2021/09/27 01:13:46;;;;;;;2.55;2.35;;;22.70;70.10;;;;;;5019477;28;20038;-37
2021/09/27 01:16:50;;;;;;;2.85;2.50;;;22.70;70.20;;;;;;5024718;28;20033;-37
2021/09/27 01:19:34;;;;;;;2.47;2.28;;;22.70;70.10;;;;;;5016871;28;20037;-38
2021/09/27 01:22:12;;;;;;;2.30;2.10;;;22.70;70.20;;;;;;5039347;28;20040;-37
2021/09/27 01:24:38;;;;;;;2.20;1.92;;;22.70;70.00;;;;;;5023118;28;20038;-37
2021/09/27 01:27:28;;;;;;;2.45;2.22;;;22.70;70.10;;;;;;5039114;28;20041;-37
2021/09/27 01:30:19;;;;;;;2.63;2.42;;;22.70;70.00;;;;;;5039154;28;20044;-37
2021/09/27 01:33:15;;;;;;;3.13;2.25;;;22.70;69.90;;;;;;5039454;28;20037;-37
2021/09/27 01:36:27;;;;;;;2.30;2.10;;;22.60;69.70;;;;;;4979706;28;20035;-37
2021/09/27 01:39:10;;;;;;;2.30;2.10;;;22.60;69.60;;;;;;4960506;28;20039;-37
2021/09/27 01:41:54;;;;;;;2.53;2.13;;;22.60;69.60;;;;;;4960900;29;20142;-37
2021/09/27 01:44:38;;;;;;;2.22;2.08;;;22.60;69.60;;;;;;4961009;29;20039;-37
2021/09/27 01:47:17;;;;;;;2.15;1.98;;;22.60;69.60;;;;;;4960875;29;20039;-37
2021/09/27 01:49:57;;;;;;;2.28;2.08;;;22.60;69.50;;;;;;4931714;29;20521;-37
2021/09/27 01:52:26;;;;;;;2.17;1.98;;;22.60;69.40;;;;;;4949113;29;20059;-37
2021/09/27 01:55:15;;;;;;;3.17;2.25;;;22.60;69.40;;;;;;4964224;29;20039;-37
2021/09/27 01:58:12;;;;;;;3.78;2.30;;;22.50;69.20;;;;;;4964233;29;20033;-37
2021/09/27 02:00:46;;;;;;;2.00;1.90;;;22.50;69.30;;;;;;4948251;29;20079;-37
2021/09/27 02:03:51;;;;;;;2.65;2.40;;;22.50;69.20;;;;;;4948498;29;20039;-37
2021/09/27 02:06:32;;;;;;;2.40;2.20;;;22.50;69.20;;;;;;4947620;29;20511;-37
2021/09/27 02:09:21;;;;;;;2.05;1.95;;;22.50;69.20;;;;;;4948333;29;20157;-37
2021/09/27 02:11:55;;;;;;;2.17;2.00;;;22.50;69.20;;;;;;4996439;28;20036;-38
2021/09/27 02:14:24;;;;;;;2.55;2.35;;;22.50;69.20;;;;;;5045819;28;20021;-37
2021/09/27 02:16:59;;;;;;;2.35;2.15;;;22.50;69.20;;;;;;5124848;27;20109;-37
2021/09/27 02:20:03;;;;;;;2.15;1.95;;;22.40;69.10;;;;;;5120516;28;20104;-37
2021/09/27 02:22:51;;;;;;;2.10;1.98;;;22.40;69.10;;;;;;5124583;28;20070;-37
2021/09/27 02:25:22;;;;;;;2.50;2.30;;;22.40;69.10;;;;;;5118517;28;20417;-37
2021/09/27 02:27:49;;;;;;;2.40;2.20;;;22.40;69.20;;;;;;5125178;28;20032;-37
2021/09/27 02:30:24;;;;;;;2.20;2.10;;;22.40;69.20;;;;;;5106194;28;20035;-37
2021/09/27 02:33:10;;;;;;;2.25;2.05;;;22.40;69.90;;;;;;5090176;28;20036;-38
2021/09/27 02:35:43;;;;;;;2.38;2.03;;;22.30;69.20;;;;;;5091226;28;20042;-38
2021/09/27 02:38:33;;;;;;;2.30;2.10;;;22.30;69.20;;;;;;5090151;28;20019;-36
2021/09/27 02:41:03;;;;;;;2.60;2.30;;;22.30;69.20;;;;;;5106595;28;20039;-35
2021/09/27 02:43:30;;;;;;;2.28;2.00;;;22.30;69.30;;;;;;5106108;28;20053;-36
2021/09/27 02:45:56;;;;;;;2.47;2.28;;;22.30;69.30;;;;;;5104789;28;20031;-36
2021/09/27 02:48:37;;;;;;;2.20;2.10;;;22.30;69.40;;;;;;5104945;28;20047;-36
2021/09/27 02:51:04;;;;;;;2.47;2.28;;;22.30;69.30;;;;;;5104530;28;20435;-36
2021/09/27 02:53:30;;;;;;;2.43;2.00;;;22.30;69.40;;;;;;5104479;28;20099;-36
2021/09/27 02:56:20;;;;;;;2.42;2.22;;;22.20;69.30;;;;;;5104253;28;20040;-36
2021/09/27 02:59:19;;;;;;;2.30;2.10;;;22.30;69.40;;;;;;5104390;28;20115;-36
2021/09/27 03:02:21;;;;;;;2.75;2.30;;;22.20;69.30;;;;;;5104315;28;20032;-36
2021/09/27 03:04:50;;;;;;;2.70;2.50;;;22.20;69.40;;;;;;5085862;28;20035;-36
2021/09/27 03:07:34;;;;;;;3.08;2.40;;;22.20;69.50;;;;;;5104352;28;20028;-36
2021/09/27 03:10:27;;;;;;;2.30;2.10;;;22.20;69.40;;;;;;5109313;28;20058;-36
2021/09/27 03:13:03;;;;;;;2.50;2.30;;;22.10;69.40;;;;;;5109087;28;20032;-38
2021/09/27 03:16:03;;;;;;;2.35;2.15;;;22.20;69.50;;;;;;5106302;28;20035;-36
2021/09/27 03:19:00;;;;;;;3.45;2.50;;;22.10;69.40;;;;;;5124662;28;20102;-39
2021/09/27 03:21:36;;;;;;;2.72;2.53;;;22.10;69.50;;;;;;5124544;28;20043;-36
2021/09/27 03:24:31;;;;;;;2.90;2.50;;;22.10;69.50;;;;;;5106093;28;20034;-36
2021/09/27 03:27:16;;;;;;;2.58;2.38;;;22.10;69.60;;;;;;5108365;28;20024;-37
2021/09/27 03:30:12;;;;;;;2.42;2.13;;;22.10;69.60;;;;;;5124264;28;20024;-36
2021/09/27 03:33:09;;;;;;;4.03;2.53;;;22.00;69.50;;;;;;5105696;28;20055;-36
2021/09/27 03:35:54;;;;;;;2.63;2.40;;;22.00;69.60;;;;;;5105110;28;20084;-36
2021/09/27 03:38:37;;;;;;;2.42;2.22;;;22.00;69.60;;;;;;5124167;28;20122;-36
2021/09/27 03:41:12;;;;;;;3.58;2.53;;;22.00;69.60;;;;;;5106640;28;20031;-36
2021/09/27 03:43:44;;;;;;;3.15;2.50;;;22.00;69.60;;;;;;5123860;28;20057;-36
2021/09/27 03:46:18;;;;;;;2.95;2.35;;;22.00;69.80;;;;;;5123854;28;20034;-36
2021/09/27 03:49:00;;;;;;;2.60;2.40;;;21.90;69.70;;;;;;5105538;28;20032;-36
2021/09/27 03:51:30;;;;;;;2.38;2.17;;;22.00;69.70;;;;;;5089003;28;20027;-36
2021/09/27 03:54:08;;;;;;;2.90;2.60;;;21.90;69.70;;;;;;5105947;28;20074;-36
2021/09/27 03:57:17;;;;;;;2.75;2.55;;;21.90;69.60;;;;;;5105723;28;20070;-36
2021/09/27 03:59:49;;;;;;;;;;;21.90;69.70;;;;;;5021080;28;20076;-37
2021/09/27 04:02:18;;;;;;;2.78;2.30;;;21.90;69.70;;;;;;5004765;28;19960;-36
2021/09/27 04:05:12;;;;;;;2.47;2.28;;;21.90;69.70;;;;;;5043833;28;20048;-37
2021/09/27 04:08:06;;;;;;;2.88;2.58;;;21.80;69.70;;;;;;5060384;28;20025;-37
2021/09/27 04:10:53;;;;;;;2.55;2.35;;;21.80;69.70;;;;;;5035942;28;20037;-37
2021/09/27 04:13:28;;;;;;;2.70;2.40;;;21.80;69.80;;;;;;5023449;28;20059;-37
2021/09/27 04:16:06;;;;;;;2.53;2.33;;;21.80;69.80;;;;;;5040050;28;20068;-36
2021/09/27 04:18:54;;;;;;;2.70;2.50;;;21.80;69.90;;;;;;5021548;28;20030;-36
2021/09/27 04:21:42;;;;;;;3.47;2.67;;;21.80;69.80;;;;;;5020125;28;20070;-37
2021/09/27 04:24:14;;;;;;;2.97;2.63;;;21.70;69.90;;;;;;5020004;28;20044;-36
2021/09/27 04:26:45;;;;;;;2.97;2.78;;;21.80;69.90;;;;;;5019730;28;20060;-36
2021/09/27 04:29:30;;;;;;;3.25;2.80;;;21.70;69.90;;;;;;5020392;28;20037;-37
2021/09/27 04:32:06;;;;;;;3.70;2.58;;;21.70;69.90;;;;;;5102666;28;20507;-37
2021/09/27 04:35:01;;;;;;;2.55;2.35;;;21.70;70.00;;;;;;5104108;28;20051;-37
2021/09/27 04:37:27;;;;;;;2.50;2.30;;;21.70;70.00;;;;;;5107446;28;20016;-37
2021/09/27 04:39:53;;;;;;;2.67;2.47;;;21.70;70.00;;;;;;5123215;28;20028;-36
2021/09/27 04:42:58;;;;;;;2.75;2.33;;;21.70;70.10;;;;;;5122864;28;20055;-37
2021/09/27 04:46:01;;;;;;;2.92;2.58;;;21.70;70.00;;;;;;5074672;28;20038;-36
2021/09/27 04:48:53;;;;;;;2.47;2.28;;;21.70;70.10;;;;;;5122873;28;20019;-36
2021/09/27 04:51:35;;;;;;;2.42;2.22;;;21.60;70.10;;;;;;5104466;28;20053;-36
2021/09/27 04:54:07;;;;;;;3.15;2.88;;;21.60;70.20;;;;;;5122773;28;20453;-36
2021/09/27 04:56:42;;;;;;;2.83;2.60;;;21.60;70.20;;;;;;5104093;28;20091;-36
2021/09/27 04:59:29;;;;;;;2.58;2.38;;;21.60;70.20;;;;;;5122917;28;20438;-37
2021/09/27 05:02:14;;;;;;;3.25;2.83;;;21.50;70.20;;;;;;5122873;28;20551;-37
2021/09/27 05:04:51;;;;;;;3.00;2.70;;;21.60;70.30;;;;;;5084904;28;20093;-37
2021/09/27 05:07:26;;;;;;;2.58;2.38;;;21.50;70.30;;;;;;5083976;28;20100;-36
2021/09/27 05:10:14;;;;;;;2.72;2.53;;;21.50;70.30;;;;;;5106229;28;20028;-36
2021/09/27 05:12:50;;;;;;;;;;;21.50;70.30;;;;;;5104874;28;20028;-36
2021/09/27 05:15:28;;;;;;;2.80;2.60;;;21.50;70.40;;;;;;5104364;28;19907;-36
2021/09/27 05:18:19;;;;;;;2.63;2.42;;;21.40;70.40;;;;;;5122513;28;20039;-36
2021/09/27 05:21:16;;;;;;;2.95;2.72;;;21.50;70.40;;;;;;5104300;28;20031;-36
2021/09/27 05:23:55;;;;;;;2.95;2.75;;;21.40;70.50;;;;;;5108767;28;20384;-36
2021/09/27 05:26:36;;;;;;;3.10;2.88;;;21.40;70.50;;;;;;5126206;28;20038;-37
2021/09/27 05:29:23;;;;;;;2.67;2.47;;;21.40;70.50;;;;;;5126681;28;20024;-36
2021/09/27 05:32:08;;;;;;;3.20;2.70;;;21.40;70.60;;;;;;5092237;28;20083;-36
2021/09/27 05:34:41;;;;;;;2.95;2.75;;;21.40;70.60;;;;;;5126135;28;20047;-37
2021/09/27 05:37:41;;;;;;;2.85;2.65;;;21.40;70.70;;;;;;5107691;28;20039;-36
2021/09/27 05:41:06;;;;;;;3.22;2.92;;;21.40;70.70;;;;;;5126289;28;20038;-37
2021/09/27 05:43:33;;;;;;;2.85;2.63;;;21.30;70.60;;;;;;5022566;28;20137;-36
2021/09/27 05:46:09;;;;;;;3.60;2.88;;;21.30;70.70;;;;;;5006778;28;20026;-36
2021/09/27 05:48:49;;;;;;;2.85;2.65;;;21.30;71.10;;;;;;5022982;28;20033;-37
2021/09/27 05:51:37;;;;;;;2.50;2.30;;;21.30;70.70;;;;;;5006368;28;20197;-37
2021/09/27 05:54:15;;;;;;;2.63;2.42;;;21.30;70.80;;;;;;5006227;28;20049;-37
2021/09/27 05:57:26;;;;;;;4.30;2.88;;;21.30;70.80;;;;;;5022480;28;20030;-36
2021/09/27 06:00:12;;;;;;;4.70;2.70;;;21.20;70.70;;;;;;5020638;28;20068;-36
2021/09/27 06:02:57;;;;;;;3.28;2.97;;;21.20;70.80;;;;;;5009755;28;20042;-37
2021/09/27 06:05:48;;;;;;;3.17;2.80;;;21.20;70.80;;;;;;5027879;28;20832;-37
2021/09/27 06:08:22;;;;;;;2.80;2.60;;;21.20;70.90;;;;;;5018546;28;20049;-36
2021/09/27 06:11:09;;;;;;;2.65;2.45;;;21.20;70.90;;;;;;5010780;28;20030;-36
2021/09/27 06:13:36;;;;;;;3.22;2.92;;;21.20;71.00;;;;;;5058465;28;20113;-36
2021/09/27 06:16:15;;;;;;;3.78;2.70;;;21.10;70.90;;;;;;5090579;28;20023;-36
2021/09/27 06:19:18;;;;;;;3.40;2.85;;;21.10;71.00;;;;;;5125385;28;20035;-36
2021/09/27 06:22:09;;;;;;;3.08;2.80;;;21.10;71.10;;;;;;5125426;28;20114;-36
2021/09/27 06:24:39;;;;;;;2.92;2.72;;;21.10;71.00;;;;;;5102870;28;20035;-36
2021/09/27 06:27:23;;;;;;;3.13;2.85;;;21.10;71.10;;;;;;5106035;28;20108;-36
2021/09/27 06:29:51;;;;;;;3.00;2.78;;;21.10;71.10;;;;;;5108425;28;20023;-36
2021/09/27 06:32:41;;;;;;;3.10;2.80;;;21.10;71.10;;;;;;5107137;28;20050;-37
2021/09/27 06:35:11;;;;;;;4.45;3.00;;;21.00;71.10;;;;;;5108350;28;20035;-36
2021/09/27 06:37:37;;;;;;;3.45;3.03;;;21.00;71.20;;;;;;5090308;28;20031;-36
2021/09/27 06:40:07;;;;;;;3.28;2.92;;;21.00;71.20;;;;;;5106931;28;20639;-36
2021/09/27 06:42:34;;;;;;;3.50;3.20;;;21.00;71.10;;;;;;5106850;28;20043;-37
2021/09/27 06:45:00;;;;;;;3.28;2.97;;;21.00;71.10;;;;;;5125270;28;20094;-37
2021/09/27 06:47:26;;;;;;;2.95;2.75;;;21.00;71.20;;;;;;5124794;28;20047;-36
2021/09/27 06:49:52;;;;;;;3.25;2.95;;;21.00;71.30;;;;;;5124960;28;20027;-36
2021/09/27 06:52:18;;;;;;;3.13;2.80;;;21.00;71.30;;;;;;5124675;28;20043;-36
2021/09/27 06:54:45;;;;;;;2.72;2.53;;;21.00;71.40;;;;;;5124852;28;20122;-37
2021/09/27 06:57:11;;;;;;;3.03;2.72;;;21.00;71.40;;;;;;5124303;28;20681;-37
2021/09/27 06:59:38;;;;;;;2.93;2.73;;;20.90;71.40;;;;;;5125053;28;20030;-36
2021/09/27 07:02:04;;;;;;;3.03;2.72;;;20.90;71.30;;;;;;5124705;28;20295;-37
2021/09/27 07:04:31;;;;;;;3.10;2.80;;;20.90;71.30;;;;;;5106408;28;20031;-36
2021/09/27 07:06:57;;;;;;;3.88;2.97;;;20.90;71.40;;;;;;5124681;28;20114;-36
2021/09/27 07:09:23;;;;;;;3.42;3.13;;;20.90;71.40;;;;;;5124509;28;20020;-36
2021/09/27 07:11:50;;;;;;;3.83;3.10;;;20.90;71.50;;;;;;5124401;28;20534;-36
2021/09/27 07:14:16;;;;;;;3.33;2.80;;;20.90;71.50;;;;;;5124584;28;20020;-36
2021/09/27 07:16:42;;;;;;;3.22;2.92;;;20.80;71.40;;;;;;5124662;28;20023;-36
2021/09/27 07:19:09;;;;;;;2.95;2.75;;;20.80;71.40;;;;;;5124249;28;20024;-36
2021/09/27 07:21:35;;;;;;;;;;;20.80;71.50;;;;;;5106332;28;20049;-37
2021/09/27 07:24:02;;;;;;;3.38;3.08;;;20.80;71.50;;;;;;5124407;28;19904;-36
2021/09/27 07:26:28;;;;;;;3.83;3.17;;;20.80;71.50;;;;;;5124317;28;20019;-36
2021/09/27 07:28:56;;;;;;;3.42;3.13;;;20.80;71.50;;;;;;5103507;28;20028;-37
2021/09/27 07:31:26;;;;;;;3.63;3.00;;;20.80;71.60;;;;;;5103716;28;20028;-36
2021/09/27 07:33:52;;;;;;;3.55;3.25;;;20.80;71.60;;;;;;5099856;28;20034;-36
2021/09/27 07:36:18;;;;;;;3.28;2.97;;;20.70;71.60;;;;;;5124037;28;20027;-36
2021/09/27 07:38:44;;;;;;;3.28;2.97;;;20.70;71.60;;;;;;5123758;28;20556;-37
2021/09/27 07:41:10;;;;;;;3.30;3.00;;;20.70;71.60;;;;;;5123736;28;20027;-37
2021/09/27 07:43:37;;;;;;;3.78;3.05;;;20.70;71.60;;;;;;5123671;28;20055;-37
2021/09/27 07:46:03;;;;;;;3.05;2.80;;;20.70;71.80;;;;;;5122818;28;20128;-40
2021/09/27 07:48:29;;;;;;;3.50;3.20;;;20.70;71.80;;;;;;5105232;28;20109;-36
2021/09/27 07:50:55;;;;;;;3.22;2.95;;;20.70;71.80;;;;;;5123721;28;20027;-36
2021/09/27 07:53:23;;;;;;;3.15;2.85;;;20.70;71.80;;;;;;5123658;28;20054;-36
2021/09/27 07:55:50;;;;;;;3.13;2.83;;;20.70;71.80;;;;;;5123702;28;20027;-36
2021/09/27 07:58:18;;;;;;;3.30;2.85;;;20.60;71.80;;;;;;5123313;28;20034;-37
2021/09/27 08:00:47;;;;;;;3.03;2.83;;;20.60;71.80;;;;;;5123770;28;20248;-36
2021/09/27 08:03:14;;;;;;;4.35;2.90;;;20.60;71.80;;;;;;5132101;27;20060;-36
2021/09/27 08:05:40;;;;;;;3.40;3.10;;;20.60;71.80;;;;;;5144061;27;20029;-37
2021/09/27 08:08:06;;;;;;;2.67;2.30;;;20.60;71.90;;;;;;5140681;27;20035;-36
2021/09/27 08:10:34;;;;;;;3.00;2.80;;;20.60;71.90;;;;;;5105146;28;20032;-36
2021/09/27 08:13:00;;;;;;;3.20;2.90;;;20.60;71.90;;;;;;5102852;28;20028;-37
2021/09/27 08:15:29;;;;;;;3.90;3.20;;;20.60;71.90;;;;;;5102969;28;20035;-36
2021/09/27 08:17:56;;;;;;;3.67;3.38;;;20.60;72.00;;;;;;5102953;28;20089;-36
2021/09/27 08:20:25;;;;;;;3.53;3.17;;;20.50;71.90;;;;;;5102840;28;20027;-36
2021/09/27 08:22:52;;;;;;;3.50;3.20;;;20.50;71.90;;;;;;5102881;28;20032;-36
2021/09/27 08:25:18;;;;;;;;;;;20.50;71.90;;;;;;5103240;28;20479;-37
2021/09/27 08:27:45;;;;;;;4.45;3.40;;;20.50;71.90;;;;;;5113458;28;19911;-36
2021/09/27 08:30:15;;;;;;;3.47;3.17;;;20.50;72.00;;;;;;5122868;28;20548;-36
2021/09/27 08:32:42;;;;;;;3.80;3.50;;;20.50;72.10;;;;;;5127185;27;20031;-36
2021/09/27 08:35:09;;;;;;;3.30;3.00;;;20.50;72.10;;;;;;5127188;27;20028;-36
2021/09/27 08:37:35;;;;;;;3.53;3.22;;;20.50;72.10;;;;;;5104769;28;20080;-37
2021/09/27 08:40:02;;;;;;;3.78;3.28;;;20.40;72.00;;;;;;5122683;28;20104;-36
2021/09/27 08:42:29;;;;;;;3.20;2.97;;;20.40;72.00;;;;;;5122833;28;20215;-36
2021/09/27 08:45:03;;;;;;;;;;;20.40;72.10;;;;;;5088426;28;20028;-37
2021/09/27 08:47:31;;;;;;;3.00;2.80;;;20.40;72.10;;;;;;5104351;28;19915;-36
2021/09/27 08:50:05;;;;;;;3.50;3.20;;;20.40;72.20;;;;;;5122467;28;20023;-37
2021/09/27 08:52:32;;;;;;;3.00;2.80;;;20.40;72.10;;;;;;5104522;28;20096;-37
2021/09/27 08:55:00;;;;;;;3.60;3.30;;;20.40;72.20;;;;;;5123162;28;20727;-37
2021/09/27 08:57:39;;;;;;;3.50;3.20;;;20.40;72.20;;;;;;5124208;28;20027;-36
2021/09/27 09:00:05;;;;;;;3.95;3.63;;;20.40;72.30;;;;;;5108681;28;20027;-37
2021/09/27 09:02:53;;;;;;;4.97;3.17;;;20.30;72.30;;;;;;5127011;28;20464;-37
2021/09/27 09:05:36;;;;;;;3.60;3.30;;;20.40;72.30;;;;;;5108741;28;20026;-36
2021/09/27 09:08:08;;;;;;;3.85;3.33;;;20.30;72.30;;;;;;5108547;28;20801;-37
2021/09/27 09:10:46;;;;;;;3.83;3.42;;;20.30;72.30;;;;;;5126767;28;20031;-36
2021/09/27 09:13:13;;;;;;;;;;;20.30;72.30;;;;;;5127383;28;20049;-36
2021/09/27 09:15:40;;;;;;;3.92;3.13;;;20.30;72.30;;;;;;5126899;28;19914;-36
2021/09/27 09:18:10;;;;;;;3.70;3.40;;;20.30;72.30;;;;;;5088002;28;20381;-36
2021/09/27 09:20:57;;;;;;;3.30;3.00;;;20.30;72.40;;;;;;5105996;28;20492;-36
2021/09/27 09:23:41;;;;;;;3.60;3.30;;;20.30;72.40;;;;;;5073750;28;20028;-36
2021/09/27 09:26:10;;;;;;;3.20;2.90;;;20.20;72.30;;;;;;5088932;28;20024;-37
2021/09/27 09:28:36;;;;;;;3.55;3.25;;;20.20;72.30;;;;;;5106316;28;20028;-36
2021/09/27 09:31:16;;;;;;;3.53;3.22;;;20.20;72.40;;;;;;5105849;28;20032;-36
2021/09/27 09:33:48;;;;;;;4.03;3.40;;;20.20;72.50;;;;;;5118904;28;20028;-36
2021/09/27 09:36:38;;;;;;;4.00;3.25;;;20.20;72.40;;;;;;5126483;28;20030;-37
2021/09/27 09:39:24;;;;;;;3.70;2.83;;;20.20;72.50;;;;;;5117715;28;20094;-36
2021/09/27 09:41:57;;;;;;;3.95;3.55;;;20.20;72.50;;;;;;5108565;28;20038;-37
2021/09/27 09:44:29;;;;;;;3.50;3.20;;;20.10;72.50;;;;;;5126508;28;20032;-36
2021/09/27 09:47:18;;;;;;;4.03;3.33;;;20.10;72.50;;;;;;5107945;28;20034;-36
2021/09/27 09:50:02;;;;;;;3.33;2.97;;;20.10;72.60;;;;;;5112787;28;20071;-36
2021/09/27 09:52:42;;;;;;;3.45;3.15;;;20.10;72.60;;;;;;5126071;28;20104;-36
2021/09/27 09:55:16;;;;;;;3.60;3.17;;;20.10;72.60;;;;;;5126075;28;20024;-36
2021/09/27 09:58:06;;;;;;;3.85;3.45;;;20.10;72.60;;;;;;5126138;28;20080;-36
2021/09/27 10:00:40;;;;;;;5.53;3.28;;;20.10;72.60;;;;;;5122443;28;20031;-37
2021/09/27 10:03:07;;;;;;;4.05;3.65;;;20.10;72.60;;;;;;5108153;28;20076;-36
2021/09/27 10:05:39;;;;;;;3.55;3.25;;;20.10;72.60;;;;;;5125958;28;20027;-37
2021/09/27 10:08:05;;;;;;;4.30;3.25;;;20.10;72.70;;;;;;5107459;28;20036;-36
2021/09/27 10:10:36;;;;;;;3.63;3.33;;;20.10;72.60;;;;;;5106439;28;20032;-36
2021/09/27 10:13:05;;;;;;;4.97;3.08;;;20.10;72.70;;;;;;5125898;28;20087;-36
2021/09/27 10:15:34;;;;;;;3.58;3.28;;;20.00;72.60;;;;;;5107353;28;20059;-36
2021/09/27 10:18:03;;;;;;;3.55;3.25;;;20.00;72.60;;;;;;5125670;28;20024;-36
2021/09/27 10:20:38;;;;;;;3.78;3.45;;;20.00;72.70;;;;;;5125304;28;20491;-37
2021/09/27 10:23:11;;;;;;;3.65;3.33;;;20.00;73.40;;;;;;5125637;28;20027;-36
2021/09/27 10:25:39;;;;;;;4.05;3.38;;;20.00;72.70;;;;;;5125534;28;20020;-36
2021/09/27 10:28:16;;;;;;;4.35;3.60;;;20.00;72.80;;;;;;5122309;28;20028;-37
2021/09/27 10:30:46;;;;;;;4.03;3.43;;;20.00;72.80;;;;;;5125421;28;20020;-36
2021/09/27 10:33:26;;;;;;;3.72;3.05;;;20.00;72.90;;;;;;5106894;28;20112;-37
2021/09/27 10:36:04;;;;;;;5.03;3.60;;;19.90;72.80;;;;;;5106917;28;20016;-37
2021/09/27 10:38:40;;;;;;;;;;;19.90;72.90;;;;;;5125948;28;20499;-36
2021/09/27 10:41:18;;;;;;;3.85;3.55;;;19.90;72.90;;;;;;5125072;28;19919;-36
2021/09/27 10:43:44;;;;;;;4.13;3.72;;;19.90;72.80;;;;;;5125383;28;20023;-36
2021/09/27 10:46:11;;;;;;;5.13;3.08;;;19.90;72.90;;;;;;5106933;28;20118;-36
2021/09/27 10:48:38;;;;;;;3.83;3.40;;;19.90;72.90;;;;;;5124965;28;20019;-36
2021/09/27 10:51:07;;;;;;;3.90;3.47;;;19.90;72.90;;;;;;5124890;28;20561;-37
2021/09/27 10:53:45;;;;;;;3.72;3.42;;;19.90;72.90;;;;;;5106831;28;20074;-37
2021/09/27 10:56:50;;;;;;;4.35;3.50;;;19.90;72.90;;;;;;5124901;28;20091;-36
2021/09/27 10:59:43;;;;;;;3.50;3.20;;;19.80;72.90;;;;;;5113769;28;20063;-36
2021/09/27 11:02:15;;;;;;;4.13;3.20;;;19.80;73.00;;;;;;5106016;28;20047;-36
2021/09/27 11:04:45;;;;;;;3.67;3.38;;;19.90;73.10;;;;;;5104439;28;20057;-36
2021/09/27 11:07:14;;;;;;;3.80;3.40;;;19.90;73.20;;;;;;5085965;28;20032;-36
2021/09/27 11:09:42;;;;;;;4.47;3.42;;;19.80;73.10;;;;;;5104281;28;20104;-36
2021/09/27 11:12:17;;;;;;;;;;;19.80;73.10;;;;;;5069974;28;20032;-36
2021/09/27 11:14:47;;;;;;;5.90;3.45;;;19.80;73.10;;;;;;5104329;28;19953;-37
2021/09/27 11:17:33;;;;;;;4.07;3.67;;;19.80;73.10;;;;;;5097579;28;20049;-36
2021/09/27 11:20:13;;;;;;;3.53;3.22;;;19.80;73.10;;;;;;5124528;28;20031;-37
2021/09/27 11:22:54;;;;;;;4.18;3.40;;;19.80;73.10;;;;;;5124231;28;20095;-36
2021/09/27 11:25:20;;;;;;;3.90;3.50;;;19.80;73.10;;;;;;5124349;28;20028;-37
2021/09/27 11:28:25;;;;;;;4.20;3.42;;;19.80;73.20;;;;;;5124586;28;20019;-36
2021/09/27 11:31:18;;;;;;;3.80;3.50;;;19.70;73.20;;;;;;5119171;28;20093;-37
2021/09/27 11:33:53;;;;;;;3.75;3.45;;;19.70;73.10;;;;;;5124135;28;20504;-36
2021/09/27 11:36:30;;;;;;;3.50;3.20;;;19.70;73.20;;;;;;5124096;28;20034;-36
2021/09/27 11:39:33;;;;;;;4.00;3.40;;;19.70;73.20;;;;;;5124336;28;20019;-36
2021/09/27 11:42:11;;;;;;;3.53;3.17;;;19.70;73.20;;;;;;5124033;28;20036;-37
2021/09/27 11:44:51;;;;;;;3.78;3.40;;;19.70;73.30;;;;;;5124084;28;20016;-36
2021/09/27 11:47:50;;;;;;;3.63;3.20;;;19.70;73.30;;;;;;5107254;28;20111;-37
2021/09/27 11:50:30;;;;;;;3.95;3.45;;;19.70;73.40;;;;;;5092543;28;20040;-36
2021/09/27 11:53:07;;;;;;;3.97;3.47;;;19.70;73.40;;;;;;5123390;28;20063;-37
2021/09/27 11:55:40;;;;;;;3.60;3.25;;;19.70;73.40;;;;;;5106029;28;20023;-36
2021/09/27 11:58:16;;;;;;;3.00;2.80;;;19.60;73.40;;;;;;5124001;28;20028;-37
2021/09/27 12:00:49;;;;;;;4.25;3.60;;;19.60;73.40;;;;;;5108883;28;20104;-36
2021/09/27 12:03:29;;;;;;;3.63;3.30;;;19.60;73.40;;;;;;5093725;28;20108;-37
2021/09/27 12:06:16;;;;;;;3.38;3.08;;;19.60;73.40;;;;;;5123436;28;20027;-36
2021/09/27 12:09:02;;;;;;;3.60;3.30;;;19.60;73.40;;;;;;5123704;28;20037;-36
2021/09/27 12:11:28;;;;;;;4.55;3.80;;;19.60;73.40;;;;;;5123697;28;20035;-37
2021/09/27 12:14:00;;;;;;;3.60;3.30;;;19.60;73.40;;;;;;5123426;28;20035;-36
2021/09/27 12:16:37;;;;;;;5.00;3.63;;;19.60;73.50;;;;;;5123437;28;20027;-37
2021/09/27 12:19:17;;;;;;;3.40;3.10;;;19.60;73.50;;;;;;5106897;28;20042;-37
2021/09/27 12:21:49;;;;;;;4.15;3.75;;;19.60;73.40;;;;;;5123327;28;20063;-38
2021/09/27 12:24:26;;;;;;;4.32;3.83;;;19.50;73.50;;;;;;5123375;28;20028;-36
2021/09/27 12:27:11;;;;;;;3.95;3.50;;;19.50;73.50;;;;;;5123310;28;20038;-37
2021/09/27 12:30:08;;;;;;;4.85;3.63;;;19.50;73.50;;;;;;5123388;28;20027;-36
2021/09/27 12:32:40;;;;;;;4.70;3.47;;;19.50;73.60;;;;;;5102045;28;20058;-36
2021/09/27 12:35:09;;;;;;;3.80;3.50;;;19.50;73.60;;;;;;5120666;28;20062;-37
2021/09/27 12:37:38;;;;;;;3.63;3.33;;;19.50;73.60;;;;;;5102859;28;20077;-37
2021/09/27 12:40:06;;;;;;;4.38;3.70;;;19.50;73.60;;;;;;5102984;28;20028;-36
2021/09/27 12:42:42;;;;;;;4.40;4.00;;;19.50;74.40;;;;;;5102453;28;20059;-37
2021/09/27 12:45:35;;;;;;;6.30;3.88;;;19.50;73.60;;;;;;5085499;28;20031;-37
2021/09/27 12:48:10;;;;;;;3.80;3.45;;;19.50;73.70;;;;;;5120934;28;20023;-36
2021/09/27 12:50:37;;;;;;;3.67;3.33;;;19.50;73.60;;;;;;5104986;28;20020;-36
2021/09/27 12:53:08;;;;;;;3.50;3.20;;;19.50;73.60;;;;;;5104227;28;20055;-36
2021/09/27 12:55:53;;;;;;;3.55;3.25;;;19.50;73.60;;;;;;5088153;28;20044;-37
2021/09/27 12:58:45;;;;;;;3.80;3.42;;;19.40;73.60;;;;;;5089036;28;20030;-37
2021/09/27 13:01:19;;;;;;;4.05;3.65;;;19.40;73.60;;;;;;5097048;28;20040;-36
2021/09/27 13:03:51;;;;;;;3.90;3.53;;;19.40;73.50;;;;;;5104830;28;20042;-36
2021/09/27 13:06:56;;;;;;;3.58;3.28;;;19.40;73.60;;;;;;5104529;28;20028;-36
2021/09/27 13:09:24;;;;;;;3.92;3.33;;;19.40;73.60;;;;;;5123053;28;20032;-36
2021/09/27 13:12:08;;;;;;;4.25;3.45;;;19.40;73.60;;;;;;5122939;28;20083;-36
2021/09/27 13:14:35;;;;;;;3.72;3.40;;;19.40;73.50;;;;;;5122782;28;20099;-36
2021/09/27 13:17:16;;;;;;;3.67;3.38;;;19.40;73.60;;;;;;5104670;28;20024;-36
2021/09/27 13:19:49;;;;;;;3.78;3.47;;;19.40;73.60;;;;;;5123059;28;20022;-36
2021/09/27 13:22:28;;;;;;;4.22;3.45;;;19.40;73.60;;;;;;5122708;28;20051;-36
2021/09/27 13:25:12;;;;;;;3.70;3.40;;;19.40;73.60;;;;;;5122555;28;20026;-36
2021/09/27 13:27:46;;;;;;;3.92;3.38;;;19.40;73.60;;;;;;5123025;28;20059;-37
2021/09/27 13:30:26;;;;;;;3.60;3.30;;;19.40;73.60;;;;;;5088185;28;20050;-36
2021/09/27 13:33:31;;;;;;;4.07;3.50;;;19.40;73.60;;;;;;5116751;28;20086;-37
2021/09/27 13:36:02;;;;;;;4.55;3.47;;;19.40;73.50;;;;;;5102509;28;20078;-36
2021/09/27 13:38:34;;;;;;;4.18;3.75;;;19.40;73.60;;;;;;5102381;28;20020;-36